Terminal Aerodrome Forecast
Issued by NWS

Home | Current Version | Previous Version | Graphics & Text | Print | Product List | Glossary On
Versions: 1 2 3 4 5 6 7 8 9 10 11 12 13 14
722
FTUS43 KBIS 231729
TAFDIK
TAF
KDIK 231729Z 2318/2418 13011KT P6SM FEW025 BKN060
     FM232200 15012KT P6SM VCTS FEW035CB SCT110
     FM240000 15011KT P6SM FEW250
     FM240700 18008KT P6SM BKN200
     FM241700 25012KT P6SM FEW060 SCT150=

USA.gov is the U.S. government's official web portal to all federal, state and local government web resources and services.